createdAt,value
2017-03-17T00:00:04.243Z,22.83
2017-03-17T00:01:04.380Z,22.94
2017-03-17T00:02:04.322Z,22.88
2017-03-17T00:03:04.260Z,22.88
2017-03-17T00:04:04.192Z,22.93
2017-03-17T00:05:03.843Z,22.84
2017-03-17T00:06:03.468Z,22.81
2017-03-17T00:07:04.011Z,22.85
2017-03-17T00:08:03.947Z,22.84
2017-03-17T00:09:03.881Z,22.81
2017-03-17T00:10:03.820Z,22.93
2017-03-17T00:11:03.762Z,22.8
2017-03-17T00:12:03.697Z,22.84
2017-03-17T00:13:03.633Z,22.91
2017-03-17T00:14:03.571Z,22.88
2017-03-17T00:15:03.507Z,22.88
2017-03-17T00:16:03.446Z,22.8
2017-03-17T00:17:03.385Z,22.78
2017-03-17T00:18:03.318Z,22.81
2017-03-17T00:19:03.258Z,22.84
2017-03-17T00:20:03.196Z,22.83
2017-03-17T00:21:02.540Z,22.81
2017-03-17T00:22:03.074Z,22.85
2017-03-17T00:23:03.011Z,22.9
2017-03-17T00:24:02.948Z,22.81
2017-03-17T00:25:02.587Z,22.85
2017-03-17T00:26:02.824Z,22.8
2017-03-17T00:27:02.460Z,22.83
2017-03-17T00:28:02.696Z,22.91
2017-03-17T00:29:02.636Z,22.83
2017-03-17T00:30:02.577Z,22.88
2017-03-17T00:31:02.512Z,22.81
2017-03-17T00:32:02.448Z,22.84
2017-03-17T00:33:02.389Z,22.78
2017-03-17T00:34:02.328Z,22.87
2017-03-17T00:35:02.264Z,22.88
2017-03-17T00:36:02.206Z,22.8
2017-03-17T00:37:01.839Z,22.94
2017-03-17T00:38:02.076Z,22.83
2017-03-17T00:39:02.014Z,22.91
2017-03-17T00:40:01.983Z,22.83
2017-03-17T00:41:01.889Z,22.85
2017-03-17T00:42:01.828Z,22.81
2017-03-17T00:43:01.466Z,22.8
2017-03-17T00:44:01.104Z,22.8
2017-03-17T00:45:01.639Z,22.87
2017-03-17T00:46:00.976Z,22.78
2017-03-17T00:47:01.212Z,22.81
2017-03-17T00:48:01.151Z,22.8
2017-03-17T00:49:01.392Z,22.8
2017-03-17T00:50:01.327Z,22.8
2017-03-17T00:51:01.265Z,22.84
2017-03-17T00:52:01.207Z,22.81
2017-03-17T00:53:01.138Z,22.84
2017-03-17T00:54:01.077Z,22.83
2017-03-17T00:55:01.015Z,22.83
2017-03-17T00:56:00.952Z,22.87
2017-03-17T00:57:00.894Z,22.81
2017-03-17T00:58:00.831Z,22.85
2017-03-17T00:59:00.772Z,22.78
2017-03-17T01:00:00.710Z,22.78
2017-03-17T01:01:15.778Z,22.83
2017-03-17T01:02:15.714Z,22.81
2017-03-17T01:03:15.657Z,22.81
2017-03-17T01:04:15.592Z,22.84
2017-03-17T01:05:15.558Z,22.8
2017-03-17T01:06:15.465Z,22.81
2017-03-17T01:07:15.407Z,22.81
2017-03-17T01:08:15.341Z,22.87
2017-03-17T01:09:15.275Z,22.81
2017-03-17T01:10:15.215Z,22.88
2017-03-17T01:11:15.174Z,22.85
2017-03-17T01:12:15.089Z,22.81
2017-03-17T01:13:15.033Z,22.81
2017-03-17T01:14:14.964Z,22.78
2017-03-17T01:15:14.902Z,22.83
2017-03-17T01:16:14.840Z,22.88
2017-03-17T01:17:14.777Z,22.81
2017-03-17T01:18:14.714Z,22.84
2017-03-17T01:19:14.661Z,22.81
2017-03-17T01:20:14.597Z,22.83
2017-03-17T01:21:14.528Z,22.78
2017-03-17T01:22:14.476Z,22.78
2017-03-17T01:23:14.401Z,22.81
2017-03-17T01:24:14.341Z,22.8
2017-03-17T01:25:14.284Z,22.84
2017-03-17T01:26:14.217Z,22.88
2017-03-17T01:27:14.154Z,22.81
2017-03-17T01:28:14.116Z,22.81
2017-03-17T01:29:14.029Z,22.8
2017-03-17T01:30:13.666Z,22.81
2017-03-17T01:31:13.631Z,22.85
2017-03-17T01:32:13.840Z,22.85
2017-03-17T01:33:13.482Z,22.88
2017-03-17T01:34:13.715Z,22.81
2017-03-17T01:35:13.654Z,22.83
2017-03-17T01:36:13.594Z,22.78
2017-03-17T01:37:13.531Z,22.84
2017-03-17T01:38:13.469Z,22.85
2017-03-17T01:39:13.406Z,22.83
2017-03-17T01:40:13.342Z,22.78
2017-03-17T01:41:13.282Z,22.83
2017-03-17T01:42:13.467Z,22.81
2017-03-17T01:43:12.863Z,22.8
2017-03-17T01:44:13.090Z,22.81
2017-03-17T01:45:13.029Z,22.85
2017-03-17T01:46:12.968Z,22.76
2017-03-17T01:47:12.904Z,22.8
2017-03-17T01:48:12.550Z,22.8
2017-03-17T01:49:12.782Z,22.81
2017-03-17T01:50:12.721Z,22.81
2017-03-17T01:51:12.656Z,22.72
2017-03-17T01:52:12.592Z,22.83
2017-03-17T01:53:12.531Z,22.73
2017-03-17T01:54:12.468Z,22.78
2017-03-17T01:55:12.407Z,22.81
2017-03-17T01:56:12.343Z,22.83
2017-03-17T01:57:12.282Z,22.83
2017-03-17T01:58:11.921Z,22.78
2017-03-17T01:59:12.158Z,22.87
2017-03-17T02:00:12.095Z,22.8
2017-03-17T02:01:12.033Z,22.76
2017-03-17T02:02:11.671Z,22.81
2017-03-17T02:03:11.908Z,22.73
2017-03-17T02:04:11.544Z,22.81
2017-03-17T02:05:11.485Z,22.73
2017-03-17T02:06:11.420Z,22.81
2017-03-17T02:07:11.357Z,22.76
2017-03-17T02:08:11.598Z,22.76
2017-03-17T02:09:11.532Z,22.88
2017-03-17T02:10:11.170Z,22.75
2017-03-17T02:11:11.408Z,22.73
2017-03-17T02:12:11.345Z,22.76
2017-03-17T02:13:11.283Z,22.72
2017-03-17T02:14:11.221Z,22.75
2017-03-17T02:15:11.157Z,22.8
2017-03-17T02:16:11.093Z,22.8
2017-03-17T02:17:11.034Z,22.76
2017-03-17T02:18:11.071Z,22.84
2017-03-17T02:19:10.910Z,22.75
2017-03-17T02:20:10.844Z,22.78
2017-03-17T02:21:10.780Z,22.78
2017-03-17T02:22:10.719Z,22.75
2017-03-17T02:23:10.361Z,22.76
2017-03-17T02:24:10.295Z,22.76
2017-03-17T02:25:10.536Z,22.76
2017-03-17T02:26:10.170Z,22.81
2017-03-17T02:27:10.410Z,22.76
2017-03-17T02:28:10.043Z,22.76
2017-03-17T02:29:10.283Z,22.78
2017-03-17T02:30:10.226Z,22.76
2017-03-17T02:31:09.856Z,22.8
2017-03-17T02:32:10.096Z,22.73
2017-03-17T02:33:10.036Z,22.83
2017-03-17T02:34:09.670Z,22.73
2017-03-17T02:35:09.914Z,22.76
2017-03-17T02:36:09.845Z,22.76
2017-03-17T02:37:09.783Z,22.8
2017-03-17T02:38:09.425Z,22.72
2017-03-17T02:39:09.670Z,22.78
2017-03-17T02:40:09.600Z,22.7
2017-03-17T02:41:09.235Z,22.76
2017-03-17T02:42:09.171Z,22.75
2017-03-17T02:43:09.440Z,22.76
2017-03-17T02:44:09.349Z,22.76
2017-03-17T02:45:09.283Z,22.72
2017-03-17T02:46:08.923Z,22.65
2017-03-17T02:47:09.156Z,22.7
2017-03-17T02:48:09.094Z,22.72
2017-03-17T02:49:09.037Z,22.75
2017-03-17T02:50:08.675Z,22.65
2017-03-17T02:51:08.905Z,22.69
2017-03-17T02:52:08.844Z,22.68
2017-03-17T02:53:08.791Z,22.65
2017-03-17T02:54:08.728Z,22.57
2017-03-17T02:55:08.358Z,22.68
2017-03-17T02:56:08.295Z,22.63
2017-03-17T02:57:08.533Z,22.7
2017-03-17T02:58:08.471Z,22.7
2017-03-17T02:59:08.411Z,22.63
2017-03-17T03:00:08.369Z,22.63
2017-03-17T03:01:08.282Z,22.65
2017-03-17T03:02:07.920Z,22.75
2017-03-17T03:03:08.159Z,22.73
2017-03-17T03:04:08.099Z,22.75
2017-03-17T03:05:08.033Z,22.65
2017-03-17T03:06:07.970Z,22.65
2017-03-17T03:07:07.906Z,22.7
2017-03-17T03:08:07.544Z,22.7
2017-03-17T03:09:07.782Z,22.66
2017-03-17T03:10:07.421Z,22.68
2017-03-17T03:11:07.360Z,22.66
2017-03-17T03:12:06.995Z,22.65
2017-03-17T03:13:07.537Z,22.63
2017-03-17T03:14:07.469Z,22.65
2017-03-17T03:15:07.107Z,22.6
2017-03-17T03:16:07.349Z,22.6
2017-03-17T03:17:07.284Z,22.62
2017-03-17T03:18:07.217Z,22.63
2017-03-17T03:19:07.158Z,22.63
2017-03-17T03:20:06.793Z,22.63
2017-03-17T03:21:06.731Z,22.66
2017-03-17T03:22:06.966Z,22.59
2017-03-17T03:23:06.909Z,22.6
2017-03-17T03:24:06.842Z,22.63
2017-03-17T03:25:06.800Z,22.6
2017-03-17T03:26:06.421Z,22.63
2017-03-17T03:27:06.655Z,22.6
2017-03-17T03:28:06.594Z,22.69
2017-03-17T03:29:06.531Z,22.55
2017-03-17T03:30:06.470Z,22.63
2017-03-17T03:31:06.407Z,22.65
2017-03-17T03:32:06.341Z,22.54
2017-03-17T03:33:06.282Z,22.59
2017-03-17T03:34:06.222Z,22.6
2017-03-17T03:35:06.155Z,22.6
2017-03-17T03:36:05.792Z,22.54
2017-03-17T03:37:06.029Z,22.57
2017-03-17T03:38:05.671Z,22.6
2017-03-17T03:39:05.909Z,22.59
2017-03-17T03:40:06.094Z,22.62
2017-03-17T03:41:05.780Z,22.66
2017-03-17T03:42:05.722Z,22.57
2017-03-17T03:43:05.660Z,22.57
2017-03-17T03:44:05.598Z,22.59
2017-03-17T03:45:05.529Z,22.57
2017-03-17T03:46:05.466Z,22.65
2017-03-17T03:47:05.406Z,22.59
2017-03-17T03:48:05.344Z,22.6
2017-03-17T03:49:05.278Z,22.59
2017-03-17T03:50:05.214Z,22.63
2017-03-17T03:51:05.152Z,22.62
2017-03-17T03:52:05.089Z,22.54
2017-03-17T03:53:05.030Z,22.54
2017-03-17T03:54:04.964Z,22.54
2017-03-17T03:55:04.906Z,22.55
2017-03-17T03:56:04.841Z,22.57
2017-03-17T03:57:04.777Z,22.54
2017-03-17T03:58:04.716Z,22.51
2017-03-17T03:59:04.654Z,22.59
2017-03-17T04:00:04.590Z,22.57
2017-03-17T04:01:04.226Z,22.57
2017-03-17T04:02:04.468Z,22.55
2017-03-17T04:03:04.403Z,22.55
2017-03-17T04:04:04.341Z,22.54
2017-03-17T04:05:04.279Z,22.54
2017-03-17T04:06:04.241Z,22.51
2017-03-17T04:07:04.183Z,22.57
2017-03-17T04:08:04.092Z,22.55
2017-03-17T04:09:04.027Z,22.59
2017-03-17T04:10:03.963Z,22.47
2017-03-17T04:11:03.899Z,22.55
2017-03-17T04:12:03.838Z,22.57
2017-03-17T04:13:03.782Z,22.45
2017-03-17T04:14:03.712Z,22.59
2017-03-17T04:15:03.675Z,22.43
2017-03-17T04:16:03.590Z,22.59
2017-03-17T04:17:03.232Z,22.59
2017-03-17T04:18:03.464Z,22.57
2017-03-17T04:19:03.405Z,22.57
2017-03-17T04:20:03.339Z,22.6
2017-03-17T04:21:03.280Z,22.41
2017-03-17T04:22:02.912Z,22.48
2017-03-17T04:23:02.850Z,22.53
2017-03-17T04:24:03.090Z,22.51
2017-03-17T04:25:03.024Z,22.48
2017-03-17T04:26:02.960Z,22.5
2017-03-17T04:27:02.898Z,22.47
2017-03-17T04:28:02.841Z,22.47
2017-03-17T04:29:02.774Z,22.54
2017-03-17T04:30:02.714Z,22.41
2017-03-17T04:31:02.647Z,22.45
2017-03-17T04:32:02.584Z,22.48
2017-03-17T04:33:02.537Z,22.48
2017-03-17T04:34:02.461Z,22.45
2017-03-17T04:35:02.399Z,22.53
2017-03-17T04:36:02.332Z,22.41
2017-03-17T04:37:01.973Z,22.53
2017-03-17T04:38:02.214Z,22.48
2017-03-17T04:39:02.178Z,22.45
2017-03-17T04:40:01.785Z,22.5
2017-03-17T04:41:02.019Z,22.48
2017-03-17T04:42:01.963Z,22.48
2017-03-17T04:43:01.899Z,22.45
2017-03-17T04:44:01.835Z,22.44
2017-03-17T04:45:01.770Z,22.45
2017-03-17T04:46:01.708Z,22.5
2017-03-17T04:47:01.644Z,22.44
2017-03-17T04:48:01.583Z,22.47
2017-03-17T04:49:01.519Z,22.43
2017-03-17T04:50:01.161Z,22.5
2017-03-17T04:51:01.393Z,22.44
2017-03-17T04:52:01.335Z,22.5
2017-03-17T04:53:01.267Z,22.51
2017-03-17T04:54:01.203Z,22.45
2017-03-17T04:55:01.146Z,22.44
2017-03-17T04:56:01.080Z,22.44
2017-03-17T04:57:01.016Z,22.48
2017-03-17T04:58:00.951Z,22.45
2017-03-17T04:59:00.890Z,22.47
2017-03-17T05:00:00.831Z,22.39
2017-03-17T05:01:00.766Z,22.41
2017-03-17T05:02:00.703Z,22.43
2017-03-17T05:03:00.644Z,22.44
2017-03-17T05:04:00.582Z,22.45
2017-03-17T05:05:00.520Z,22.44
2017-03-17T05:06:00.157Z,22.51
2017-03-17T05:07:00.392Z,22.44
2017-03-17T05:08:00.330Z,22.43
2017-03-17T05:09:00.262Z,22.45
2017-03-17T05:10:00.215Z,22.48
2017-03-17T05:11:00.140Z,22.48
2017-03-17T05:12:00.081Z,22.47
2017-03-17T05:13:00.018Z,22.44
2017-03-17T05:13:59.948Z,22.43
2017-03-17T05:14:59.891Z,22.45
2017-03-17T05:15:59.824Z,22.41
2017-03-17T05:16:59.761Z,22.43
2017-03-17T05:17:59.704Z,22.43
2017-03-17T05:18:59.642Z,22.41
2017-03-17T05:19:59.283Z,22.41
2017-03-17T05:20:59.219Z,22.38
2017-03-17T05:21:59.450Z,22.51
2017-03-17T05:22:59.393Z,22.48
2017-03-17T05:23:59.327Z,22.5
2017-03-17T05:24:58.965Z,22.47
2017-03-17T05:25:59.200Z,22.44
2017-03-17T05:26:59.142Z,22.44
2017-03-17T05:27:59.075Z,22.45
2017-03-17T05:28:59.058Z,22.43
2017-03-17T05:29:58.951Z,22.47
2017-03-17T05:30:58.884Z,22.45
2017-03-17T05:31:58.820Z,22.44
2017-03-17T05:32:58.757Z,22.41
2017-03-17T05:33:58.698Z,22.39
2017-03-17T05:34:58.643Z,22.38
2017-03-17T05:35:58.572Z,22.44
2017-03-17T05:36:58.515Z,22.45
2017-03-17T05:37:58.449Z,22.44
2017-03-17T05:38:58.384Z,22.45
2017-03-17T05:39:58.323Z,22.45
2017-03-17T05:40:58.258Z,22.47
2017-03-17T05:41:58.197Z,22.41
2017-03-17T05:42:58.137Z,22.5
2017-03-17T05:43:58.080Z,22.48
2017-03-17T05:44:58.025Z,22.43
2017-03-17T05:45:57.645Z,22.43
2017-03-17T05:46:57.882Z,22.44
2017-03-17T05:47:57.821Z,22.39
2017-03-17T05:48:57.756Z,22.41
2017-03-17T05:49:57.395Z,22.36
2017-03-17T05:50:57.633Z,22.44
2017-03-17T05:51:57.575Z,22.5
2017-03-17T05:52:57.530Z,22.43
2017-03-17T05:53:57.445Z,22.48
2017-03-17T05:54:57.388Z,22.5
2017-03-17T05:55:57.317Z,22.43
2017-03-17T05:56:56.958Z,22.44
2017-03-17T05:57:57.199Z,22.41
2017-03-17T05:58:57.131Z,22.39
2017-03-17T05:59:57.069Z,22.41
2017-03-17T06:00:57.003Z,22.41
2017-03-17T06:01:56.941Z,22.41
2017-03-17T06:02:56.879Z,22.47
2017-03-17T06:03:56.818Z,22.51
2017-03-17T06:04:56.793Z,22.45
2017-03-17T06:05:56.691Z,22.47
2017-03-17T06:06:56.641Z,22.48
2017-03-17T06:07:56.570Z,22.44
2017-03-17T06:08:56.500Z,22.41
2017-03-17T06:09:56.447Z,22.51
2017-03-17T06:10:56.379Z,22.41
2017-03-17T06:11:56.312Z,22.44
2017-03-17T06:12:56.256Z,22.41
2017-03-17T06:13:56.193Z,22.39
2017-03-17T06:14:56.131Z,22.51
2017-03-17T06:15:55.764Z,22.43
2017-03-17T06:16:55.999Z,22.45
2017-03-17T06:17:55.640Z,22.51
2017-03-17T06:18:55.877Z,22.41
2017-03-17T06:19:55.514Z,22.44
2017-03-17T06:20:55.752Z,22.45
2017-03-17T06:21:55.691Z,22.5
2017-03-17T06:22:55.624Z,22.48
2017-03-17T06:23:55.564Z,22.43
2017-03-17T06:24:55.502Z,22.5
2017-03-17T06:25:55.434Z,22.43
2017-03-17T06:26:55.372Z,22.47
2017-03-17T06:27:55.014Z,22.43
2017-03-17T06:28:55.247Z,22.48
2017-03-17T06:29:55.196Z,22.41
2017-03-17T06:30:55.126Z,22.5
2017-03-17T06:31:55.059Z,22.5
2017-03-17T06:32:54.998Z,22.43
2017-03-17T06:33:54.934Z,22.47
2017-03-17T06:34:54.877Z,22.51
2017-03-17T06:35:54.806Z,22.47
2017-03-17T06:36:54.750Z,22.39
2017-03-17T06:37:54.691Z,22.45
2017-03-17T06:38:54.348Z,22.41
2017-03-17T06:39:54.556Z,22.41
2017-03-17T06:40:54.494Z,22.45
2017-03-17T06:41:54.432Z,22.41
2017-03-17T06:42:54.387Z,22.44
2017-03-17T06:43:54.307Z,22.44
2017-03-17T06:44:54.251Z,22.43
2017-03-17T06:45:54.182Z,22.48
2017-03-17T06:46:54.123Z,22.44
2017-03-17T06:47:54.060Z,22.53
2017-03-17T06:48:53.995Z,22.44
2017-03-17T06:49:53.934Z,22.45
2017-03-17T06:50:53.567Z,22.45
2017-03-17T06:51:53.805Z,22.47
2017-03-17T06:52:53.741Z,22.47
2017-03-17T06:53:53.686Z,22.44
2017-03-17T06:54:53.618Z,22.44
2017-03-17T06:55:53.551Z,22.44
2017-03-17T06:56:53.194Z,22.44
2017-03-17T06:57:53.429Z,22.51
2017-03-17T06:58:53.364Z,22.44
2017-03-17T06:59:53.305Z,22.45
2017-03-17T07:00:52.944Z,22.47
2017-03-17T07:01:53.177Z,22.47
2017-03-17T07:02:53.121Z,22.5
2017-03-17T07:03:53.052Z,22.45
2017-03-17T07:04:52.989Z,22.47
2017-03-17T07:05:52.926Z,22.47
2017-03-17T07:06:52.864Z,22.48
2017-03-17T07:07:52.809Z,22.48
2017-03-17T07:08:52.739Z,22.54
2017-03-17T07:09:52.678Z,22.44
2017-03-17T07:10:52.613Z,22.45
2017-03-17T07:11:52.552Z,22.43
2017-03-17T07:12:52.485Z,22.5
2017-03-17T07:13:52.426Z,22.47
2017-03-17T07:14:52.367Z,22.47
2017-03-17T07:15:52.301Z,22.44
2017-03-17T07:16:52.239Z,22.48
2017-03-17T07:17:52.174Z,22.47
2017-03-17T07:18:52.109Z,22.44
2017-03-17T07:19:52.051Z,22.44
2017-03-17T07:20:51.985Z,22.48
2017-03-17T07:21:51.924Z,22.44
2017-03-17T07:22:51.566Z,22.48
2017-03-17T07:23:51.805Z,22.5
2017-03-17T07:24:51.738Z,22.5
2017-03-17T07:25:51.675Z,22.47
2017-03-17T07:26:51.613Z,22.47
2017-03-17T07:27:51.553Z,22.51
2017-03-17T07:28:51.486Z,22.5
2017-03-17T07:29:51.424Z,22.47
2017-03-17T07:30:51.357Z,22.44
2017-03-17T07:31:51.295Z,22.44
2017-03-17T07:32:51.239Z,22.51
2017-03-17T07:33:51.178Z,22.48
2017-03-17T07:34:51.112Z,22.43
2017-03-17T07:35:51.045Z,22.44
2017-03-17T07:36:50.983Z,22.48
2017-03-17T07:37:50.929Z,22.5
2017-03-17T07:38:50.861Z,22.44
2017-03-17T07:39:50.794Z,22.44
2017-03-17T07:40:50.735Z,22.47
2017-03-17T07:41:50.370Z,22.45
2017-03-17T07:42:50.615Z,22.45
2017-03-17T07:43:50.547Z,22.47
2017-03-17T07:44:50.483Z,22.45
2017-03-17T07:45:50.420Z,22.5
2017-03-17T07:46:50.357Z,22.47
2017-03-17T07:47:49.998Z,22.41
2017-03-17T07:48:50.234Z,22.35
2017-03-17T07:49:50.174Z,22.32
2017-03-17T07:50:50.255Z,22.23
2017-03-17T07:51:50.068Z,22.3
2017-03-17T07:52:49.809Z,22.32
2017-03-17T07:53:49.980Z,22.29
2017-03-17T07:54:49.656Z,22.2
2017-03-17T07:55:50.181Z,22.2
2017-03-17T07:56:49.280Z,22.22
2017-03-17T07:57:49.372Z,22.18
2017-03-17T07:58:49.606Z,22.15
2017-03-17T07:59:49.243Z,22.08
2017-03-17T08:00:49.480Z,22.06
2017-03-17T08:01:49.415Z,22.07
2017-03-17T08:02:49.359Z,22
2017-03-17T08:03:49.295Z,22.02
2017-03-17T08:04:49.232Z,22.07
2017-03-17T08:05:48.869Z,21.95
2017-03-17T08:06:49.106Z,22.04
2017-03-17T08:07:49.045Z,21.92
2017-03-17T08:08:48.979Z,21.92
2017-03-17T08:09:48.919Z,21.83
2017-03-17T08:10:48.554Z,21.93
2017-03-17T08:11:48.798Z,21.95
2017-03-17T08:12:48.730Z,21.77
2017-03-17T08:13:48.665Z,21.75
2017-03-17T08:14:48.603Z,21.67
2017-03-17T08:15:48.537Z,21.69
2017-03-17T08:16:48.476Z,21.76
2017-03-17T08:17:48.415Z,21.7
2017-03-17T08:18:48.355Z,21.72
2017-03-17T08:19:48.286Z,21.62
2017-03-17T08:20:48.226Z,21.54
2017-03-17T08:21:48.159Z,21.73
2017-03-17T08:22:48.148Z,21.67
2017-03-17T08:23:48.037Z,21.6
2017-03-17T08:24:47.672Z,21.58
2017-03-17T08:25:47.907Z,21.62
2017-03-17T08:26:47.844Z,21.54
2017-03-17T08:27:47.784Z,21.61
2017-03-17T08:28:47.721Z,21.58
2017-03-17T08:29:47.659Z,21.52
2017-03-17T08:30:47.290Z,21.61
2017-03-17T08:31:47.536Z,21.61
2017-03-17T08:32:47.466Z,21.6
2017-03-17T08:33:47.404Z,21.58
2017-03-17T08:34:47.336Z,21.6
2017-03-17T08:35:47.278Z,21.64
2017-03-17T08:36:47.225Z,21.64
2017-03-17T08:37:47.149Z,21.6
2017-03-17T08:38:47.093Z,21.52
2017-03-17T08:39:47.025Z,21.48
2017-03-17T08:40:46.955Z,21.54
2017-03-17T08:41:46.894Z,21.64
2017-03-17T08:42:46.843Z,21.62
2017-03-17T08:43:46.773Z,21.55
2017-03-17T08:44:46.705Z,21.58
2017-03-17T08:45:46.638Z,21.48
2017-03-17T08:46:46.283Z,21.54
2017-03-17T08:47:46.513Z,21.64
2017-03-17T08:48:46.450Z,21.62
2017-03-17T08:49:46.087Z,21.69
2017-03-17T08:50:46.322Z,21.7
2017-03-17T08:51:46.261Z,21.62
2017-03-17T08:52:45.932Z,21.62
2017-03-17T08:53:45.837Z,21.67
2017-03-17T08:54:45.797Z,21.67
2017-03-17T08:55:46.006Z,21.64
2017-03-17T08:56:45.351Z,21.64
2017-03-17T08:57:45.885Z,21.64
2017-03-17T08:58:45.819Z,21.67
2017-03-17T08:59:45.751Z,21.62
2017-03-17T09:00:45.690Z,21.67
2017-03-17T09:01:45.629Z,21.61
2017-03-17T09:02:45.570Z,21.73
2017-03-17T09:03:45.502Z,21.67
2017-03-17T09:04:45.148Z,21.79
2017-03-17T09:05:45.376Z,21.93
2017-03-17T09:06:45.308Z,21.92
2017-03-17T09:07:45.254Z,21.95
2017-03-17T09:08:45.186Z,21.99
2017-03-17T09:09:45.118Z,22.02
2017-03-17T09:10:45.055Z,22.04
2017-03-17T09:11:45.014Z,22.07
2017-03-17T09:12:44.946Z,22.1
2017-03-17T09:13:44.867Z,22.15
2017-03-17T09:14:44.814Z,22.18
2017-03-17T09:15:44.741Z,22.15
2017-03-17T09:16:44.677Z,22.13
2017-03-17T09:17:44.616Z,22.18
2017-03-17T09:18:44.252Z,22.23
2017-03-17T09:19:44.495Z,22.11
2017-03-17T09:20:44.128Z,22.23
2017-03-17T09:21:44.379Z,22.29
2017-03-17T09:22:44.306Z,22.38
2017-03-17T09:23:44.241Z,22.39
2017-03-17T09:24:44.177Z,22.3
2017-03-17T09:25:44.111Z,22.39
2017-03-17T09:26:43.750Z,22.38
2017-03-17T09:27:43.989Z,22.36
2017-03-17T09:28:43.924Z,22.36
2017-03-17T09:29:43.860Z,22.38
2017-03-17T09:30:43.802Z,22.41
2017-03-17T09:31:43.437Z,22.53
2017-03-17T09:32:43.688Z,22.5
2017-03-17T09:33:43.613Z,22.54
2017-03-17T09:34:43.248Z,22.44
2017-03-17T09:35:43.191Z,22.6
2017-03-17T09:36:43.426Z,22.54
2017-03-17T09:37:43.372Z,22.53
2017-03-17T09:38:43.329Z,22.59
2017-03-17T09:39:43.239Z,22.57
2017-03-17T09:40:43.174Z,22.51
2017-03-17T09:41:43.111Z,22.53
2017-03-17T09:42:43.062Z,22.55
2017-03-17T09:43:42.987Z,22.6
2017-03-17T09:44:42.925Z,22.65
2017-03-17T09:45:42.862Z,22.57
2017-03-17T09:46:42.802Z,22.57
2017-03-17T09:47:42.742Z,22.6
2017-03-17T09:48:42.670Z,22.59
2017-03-17T09:49:42.609Z,22.6
2017-03-17T09:50:42.549Z,22.59
2017-03-17T09:51:42.542Z,22.54
2017-03-17T09:52:42.428Z,22.68
2017-03-17T09:53:42.361Z,22.55
2017-03-17T09:54:42.300Z,22.54
2017-03-17T09:55:42.237Z,22.57
2017-03-17T09:56:42.172Z,22.63
2017-03-17T09:57:41.815Z,22.66
2017-03-17T09:58:42.048Z,22.62
2017-03-17T09:59:41.988Z,22.62
2017-03-17T10:00:42.072Z,22.62
2017-03-17T10:01:41.861Z,22.62
2017-03-17T10:02:41.798Z,22.62
2017-03-17T10:03:41.738Z,22.7
2017-03-17T10:04:41.679Z,22.63
2017-03-17T10:05:41.760Z,22.68
2017-03-17T10:06:41.548Z,22.72
2017-03-17T10:07:41.192Z,22.69
2017-03-17T10:08:41.429Z,22.7
2017-03-17T10:09:41.061Z,22.75
2017-03-17T10:10:41.312Z,22.72
2017-03-17T10:11:41.126Z,22.73
2017-03-17T10:12:41.192Z,22.69
2017-03-17T10:13:41.126Z,22.66
2017-03-17T10:14:41.050Z,22.75
2017-03-17T10:15:40.715Z,22.8
2017-03-17T10:16:40.930Z,22.72
2017-03-17T10:17:40.867Z,22.8
2017-03-17T10:18:40.515Z,22.78
2017-03-17T10:19:40.441Z,22.73
2017-03-17T10:20:40.380Z,22.78
2017-03-17T10:21:40.615Z,22.76
2017-03-17T10:22:40.555Z,22.75
2017-03-17T10:23:40.193Z,22.76
2017-03-17T10:24:40.433Z,22.84
2017-03-17T10:25:40.367Z,22.83
2017-03-17T10:26:40.002Z,22.81
2017-03-17T10:27:39.943Z,22.81
2017-03-17T10:28:40.182Z,22.85
2017-03-17T10:29:40.123Z,22.8
2017-03-17T10:30:40.061Z,22.8
2017-03-17T10:31:39.997Z,22.72
2017-03-17T10:32:39.632Z,22.81
2017-03-17T10:33:39.878Z,22.75
2017-03-17T10:34:39.809Z,22.78
2017-03-17T10:35:39.768Z,22.83
2017-03-17T10:36:39.685Z,22.81
2017-03-17T10:37:39.638Z,22.93
2017-03-17T10:38:39.568Z,22.9
2017-03-17T10:39:39.495Z,22.93
2017-03-17T10:40:39.437Z,22.88
2017-03-17T10:41:39.373Z,22.93
2017-03-17T10:42:39.309Z,22.9
2017-03-17T10:43:39.249Z,22.96
2017-03-17T10:44:39.185Z,23.03
2017-03-17T10:45:39.126Z,23.02
2017-03-17T10:46:39.090Z,23.02
2017-03-17T10:47:38.999Z,23.03
2017-03-17T10:48:38.942Z,23.02
2017-03-17T10:49:38.875Z,23.06
2017-03-17T10:50:39.064Z,23.08
2017-03-17T10:51:38.456Z,23.08
2017-03-17T10:52:38.392Z,23.12
2017-03-17T10:53:38.630Z,23.13
2017-03-17T10:54:38.564Z,23.18
2017-03-17T10:55:38.502Z,23.12
2017-03-17T10:56:38.442Z,23.2
2017-03-17T10:57:38.380Z,23.21
2017-03-17T10:58:38.327Z,23.24
2017-03-17T10:59:38.259Z,23.17
2017-03-17T11:00:38.197Z,23.23
2017-03-17T11:01:38.158Z,23.25
2017-03-17T11:02:37.774Z,23.23
2017-03-17T11:03:37.725Z,23.23
2017-03-17T11:04:37.648Z,23.24
2017-03-17T11:05:37.959Z,23.32
2017-03-17T11:06:37.331Z,23.27
2017-03-17T11:07:37.773Z,23.25
2017-03-17T11:08:37.851Z,23.34
2017-03-17T11:09:37.566Z,23.28
2017-03-17T11:10:37.768Z,23.28
2017-03-17T11:11:37.716Z,23.34
2017-03-17T11:12:37.456Z,23.27
2017-03-17T11:13:37.091Z,23.36
2017-03-17T11:14:37.029Z,23.39
2017-03-17T11:15:37.264Z,23.39
2017-03-17T11:16:37.212Z,23.41
2017-03-17T11:17:36.848Z,23.48
2017-03-17T11:18:36.781Z,23.43
2017-03-17T11:19:36.718Z,23.54
2017-03-17T11:20:36.656Z,23.44
2017-03-17T11:21:36.893Z,23.46
2017-03-17T11:22:36.536Z,23.5
2017-03-17T11:23:36.781Z,23.54
2017-03-17T11:24:36.713Z,23.48
2017-03-17T11:25:36.651Z,23.58
2017-03-17T11:26:36.592Z,23.58
2017-03-17T11:27:36.233Z,23.62
2017-03-17T11:28:36.469Z,23.55
2017-03-17T11:29:36.403Z,23.58
2017-03-17T11:30:36.342Z,23.5
2017-03-17T11:31:36.281Z,23.56
2017-03-17T11:32:36.223Z,23.48
2017-03-17T11:33:35.558Z,23.5
2017-03-17T11:34:36.099Z,23.5
2017-03-17T11:35:36.062Z,23.51
2017-03-17T11:36:35.972Z,23.51
2017-03-17T11:37:35.912Z,23.55
2017-03-17T11:38:35.854Z,23.55
2017-03-17T11:39:35.792Z,23.54
2017-03-17T11:40:35.129Z,23.48
2017-03-17T11:41:35.364Z,23.51
2017-03-17T11:42:35.603Z,23.48
2017-03-17T11:43:35.565Z,23.44
2017-03-17T11:44:35.517Z,23.5
2017-03-17T11:45:35.421Z,23.51
2017-03-17T11:46:35.085Z,23.48
2017-03-17T11:47:35.300Z,23.44
2017-03-17T11:48:35.234Z,23.41
2017-03-17T11:49:34.876Z,23.47
2017-03-17T11:50:35.111Z,23.46
2017-03-17T11:51:35.050Z,23.41
2017-03-17T11:52:34.690Z,23.41
2017-03-17T11:53:34.924Z,23.47
2017-03-17T11:54:34.263Z,23.46
2017-03-17T11:55:34.206Z,23.44
2017-03-17T11:56:34.445Z,23.5
2017-03-17T11:57:34.385Z,23.44
2017-03-17T11:58:34.325Z,23.46
2017-03-17T11:59:34.321Z,23.48
2017-03-17T12:00:34.198Z,23.43
2017-03-17T12:01:34.429Z,23.46
2017-03-17T12:02:34.069Z,23.44
2017-03-17T12:03:34.336Z,23.44
2017-03-17T12:04:34.249Z,23.43
2017-03-17T12:05:34.186Z,23.48
2017-03-17T12:06:34.132Z,23.44
2017-03-17T12:07:34.063Z,23.46
2017-03-17T12:08:34.000Z,23.46
2017-03-17T12:09:33.637Z,23.37
2017-03-17T12:10:33.877Z,23.36
2017-03-17T12:11:33.816Z,23.37
2017-03-17T12:12:33.756Z,23.4
2017-03-17T12:13:33.698Z,23.43
2017-03-17T12:14:33.627Z,23.37
2017-03-17T12:15:33.571Z,23.32
2017-03-17T12:16:33.228Z,23.32
2017-03-17T12:17:33.443Z,23.25
2017-03-17T12:18:33.385Z,23.41
2017-03-17T12:19:32.721Z,23.32
2017-03-17T12:20:33.265Z,23.36
2017-03-17T12:21:32.941Z,23.34
2017-03-17T12:22:33.337Z,23.27
2017-03-17T12:23:33.085Z,23.34
2017-03-17T12:24:33.017Z,23.31
2017-03-17T12:25:32.948Z,23.25
2017-03-17T12:26:32.887Z,23.32
2017-03-17T12:27:32.833Z,23.36
2017-03-17T12:28:32.764Z,23.36
2017-03-17T12:29:32.702Z,23.32
2017-03-17T12:30:32.825Z,23.31
2017-03-17T12:31:32.279Z,23.2
2017-03-17T12:32:32.239Z,23.28
2017-03-17T12:33:32.457Z,23.28
2017-03-17T12:34:32.393Z,23.28
2017-03-17T12:35:32.482Z,23.32
2017-03-17T12:36:32.273Z,23.31
2017-03-17T12:37:31.926Z,23.31
2017-03-17T12:38:32.152Z,23.36
2017-03-17T12:39:32.094Z,23.37
2017-03-17T12:40:32.021Z,23.32
2017-03-17T12:41:31.962Z,23.28
2017-03-17T12:42:31.601Z,23.37
2017-03-17T12:43:31.836Z,23.32
2017-03-17T12:44:31.779Z,23.36
2017-03-17T12:45:31.716Z,23.39
2017-03-17T12:46:31.653Z,23.28
2017-03-17T12:47:31.590Z,23.28
2017-03-17T12:48:31.530Z,23.36
2017-03-17T12:49:31.476Z,23.27
2017-03-17T12:50:31.403Z,23.27
2017-03-17T12:51:31.350Z,23.39
2017-03-17T12:52:31.289Z,23.34
2017-03-17T12:53:31.223Z,23.28
2017-03-17T12:54:31.160Z,23.32